createdAt,value
2019-05-06T00:00:13.934Z,9.67
2019-05-06T00:00:56.630Z,10.83
2019-05-06T00:01:28.057Z,9.07
2019-05-06T00:02:04.531Z,8.90
2019-05-06T00:02:40.133Z,10.70
2019-05-06T00:03:15.887Z,10.67
2019-05-06T00:03:51.633Z,8.60
2019-05-06T00:04:27.280Z,13.37
2019-05-06T00:05:04.120Z,13.73
2019-05-06T00:05:39.642Z,12.00
2019-05-06T00:06:15.455Z,8.57
2019-05-06T00:06:50.889Z,10.63
2019-05-06T00:07:26.424Z,12.27
2019-05-06T00:08:04.023Z,14.20
2019-05-06T00:08:39.805Z,11.17
2019-05-06T00:09:16.177Z,10.87
2019-05-06T00:09:53.905Z,9.70
2019-05-06T00:10:31.456Z,10.50
2019-05-06T00:11:07.272Z,8.40
2019-05-06T00:11:44.711Z,11.17
2019-05-06T00:12:20.327Z,9.80
2019-05-06T00:12:56.419Z,9.47
2019-05-06T00:13:34.209Z,9.37
2019-05-06T00:14:09.766Z,11.97
2019-05-06T00:14:45.706Z,11.20
2019-05-06T00:15:21.166Z,16.57
2019-05-06T00:15:57.272Z,14.00
2019-05-06T00:16:34.738Z,7.87
2019-05-06T00:17:10.361Z,10.57
2019-05-06T00:17:46.275Z,11.67
2019-05-06T00:18:22.019Z,9.60
2019-05-06T00:18:57.583Z,16.00
2019-05-06T00:19:34.132Z,11.83
2019-05-06T00:20:10.044Z,9.43
2019-05-06T00:20:46.056Z,13.83
2019-05-06T00:21:24.366Z,10.37
2019-05-06T00:21:59.443Z,12.57
2019-05-06T00:22:34.905Z,13.93
2019-05-06T00:23:25.037Z,12.13
2019-05-06T00:24:00.775Z,12.70
2019-05-06T00:24:44.008Z,13.53
2019-05-06T00:25:26.085Z,11.83
2019-05-06T00:26:14.859Z,12.30
2019-05-06T00:26:57.613Z,11.33
2019-05-06T00:27:56.267Z,12.03
2019-05-06T00:28:40.723Z,18.97
2019-05-06T00:29:18.476Z,22.57
2019-05-06T00:29:55.039Z,18.87
2019-05-06T00:30:30.743Z,17.43
2019-05-06T00:31:12.958Z,12.57
2019-05-06T00:31:44.821Z,18.50
2019-05-06T00:32:20.258Z,14.83
2019-05-06T00:32:55.793Z,16.13
2019-05-06T00:33:33.991Z,23.67
2019-05-06T00:34:08.776Z,17.37
2019-05-06T00:34:44.588Z,17.03
2019-05-06T00:35:20.043Z,19.60
2019-05-06T00:35:55.704Z,16.00
2019-05-06T00:36:31.498Z,18.30
2019-05-06T00:37:06.930Z,19.80
2019-05-06T00:37:44.184Z,11.13
2019-05-06T00:38:19.706Z,15.17
2019-05-06T00:38:58.022Z,13.93
2019-05-06T00:39:53.875Z,11.87
2019-05-06T00:40:34.019Z,12.83
2019-05-06T00:41:14.422Z,11.90
2019-05-06T00:41:56.237Z,12.53
2019-05-06T00:42:34.623Z,16.90
2019-05-06T00:43:11.234Z,13.57
2019-05-06T00:43:46.672Z,14.10
2019-05-06T00:44:23.907Z,19.03
2019-05-06T00:44:59.692Z,18.40
2019-05-06T00:45:35.196Z,22.60
2019-05-06T00:46:10.805Z,11.83
2019-05-06T00:46:46.270Z,15.67
2019-05-06T00:47:22.035Z,13.27
2019-05-06T00:47:59.268Z,13.00
2019-05-06T00:48:35.060Z,12.53
2019-05-06T00:49:10.597Z,10.10
2019-05-06T00:49:46.336Z,11.50
2019-05-06T00:50:23.510Z,18.23
2019-05-06T00:50:59.490Z,11.27
2019-05-06T00:51:35.643Z,13.43
2019-05-06T00:52:11.200Z,15.47
2019-05-06T00:52:46.839Z,10.83
2019-05-06T00:53:23.991Z,15.20
2019-05-06T00:54:04.793Z,16.30
2019-05-06T00:54:40.804Z,14.33
2019-05-06T00:55:16.241Z,15.27
2019-05-06T00:55:53.668Z,11.77
2019-05-06T00:56:29.028Z,13.17
2019-05-06T00:57:04.476Z,12.20
2019-05-06T00:57:46.385Z,15.63
2019-05-06T00:58:23.806Z,14.23
2019-05-06T00:58:59.681Z,15.03
2019-05-06T00:59:35.133Z,12.00
2019-05-06T01:00:10.919Z,12.87
2019-05-06T01:00:46.673Z,10.00
2019-05-06T01:01:26.915Z,14.40
2019-05-06T01:01:59.998Z,15.83
2019-05-06T01:02:35.817Z,14.73
2019-05-06T01:03:11.606Z,12.30
2019-05-06T01:03:47.324Z,12.33
2019-05-06T01:04:24.490Z,13.47
2019-05-06T01:05:00.374Z,16.37
2019-05-06T01:05:35.837Z,10.73
2019-05-06T01:06:11.425Z,14.93
2019-05-06T01:06:47.701Z,14.93
2019-05-06T01:07:23.743Z,13.93
2019-05-06T01:08:00.188Z,14.93
2019-05-06T01:08:35.712Z,12.87
2019-05-06T01:09:14.712Z,10.43
2019-05-06T01:09:50.385Z,15.30
2019-05-06T01:10:26.065Z,13.63
2019-05-06T01:11:03.883Z,11.63
2019-05-06T01:11:39.281Z,14.17
2019-05-06T01:12:14.716Z,13.93
2019-05-06T01:13:08.332Z,17.03
2019-05-06T01:14:06.179Z,12.23
2019-05-06T01:14:46.231Z,11.57
2019-05-06T01:15:23.839Z,16.10
2019-05-06T01:15:59.402Z,15.03
2019-05-06T01:16:35.307Z,19.17
2019-05-06T01:17:13.312Z,14.27
2019-05-06T01:17:48.403Z,17.07
2019-05-06T01:18:24.494Z,12.40
2019-05-06T01:19:00.582Z,13.00
2019-05-06T01:19:36.006Z,8.87
2019-05-06T01:20:13.859Z,9.07
2019-05-06T01:20:51.185Z,16.13
2019-05-06T01:21:26.639Z,11.53
2019-05-06T01:22:04.548Z,11.00
2019-05-06T01:22:39.683Z,19.50
2019-05-06T01:23:15.208Z,11.67
2019-05-06T01:23:51.054Z,13.07
2019-05-06T01:24:26.815Z,11.90
2019-05-06T01:25:03.936Z,12.30
2019-05-06T01:25:39.815Z,13.40
2019-05-06T01:26:17.231Z,11.80
2019-05-06T01:26:53.618Z,11.23
2019-05-06T01:27:29.358Z,11.93
2019-05-06T01:28:04.806Z,10.47
2019-05-06T01:28:40.239Z,9.57
2019-05-06T01:29:15.700Z,10.43
2019-05-06T01:29:51.165Z,16.77
2019-05-06T01:30:26.938Z,13.97
2019-05-06T01:31:04.258Z,11.43
2019-05-06T01:31:43.215Z,12.50
2019-05-06T01:32:17.136Z,13.30
2019-05-06T01:32:54.357Z,13.07
2019-05-06T01:33:30.720Z,12.43
2019-05-06T01:34:06.646Z,11.83
2019-05-06T01:34:44.522Z,16.87
2019-05-06T01:35:19.223Z,18.67
2019-05-06T01:35:54.677Z,18.00
2019-05-06T01:36:30.179Z,16.97
2019-05-06T01:37:05.637Z,12.97
2019-05-06T01:37:44.017Z,12.20
2019-05-06T01:38:27.308Z,14.43
2019-05-06T01:39:13.870Z,17.57
2019-05-06T01:40:00.312Z,18.77
2019-05-06T01:40:43.964Z,16.13
2019-05-06T01:41:44.761Z,17.77
2019-05-06T01:42:51.552Z,18.00
2019-05-06T01:43:30.610Z,23.47
2019-05-06T01:44:06.164Z,20.07
2019-05-06T01:44:41.603Z,18.17
2019-05-06T01:45:17.701Z,17.27
2019-05-06T01:45:53.748Z,15.57
2019-05-06T01:46:29.330Z,21.77
2019-05-06T01:47:05.094Z,10.20
2019-05-06T01:47:41.191Z,10.83
2019-05-06T01:48:19.097Z,14.13
2019-05-06T01:48:54.530Z,14.77
2019-05-06T01:49:30.055Z,13.70
2019-05-06T01:50:06.507Z,14.40
2019-05-06T01:50:41.967Z,16.23
2019-05-06T01:51:18.912Z,14.33
2019-05-06T01:51:55.089Z,17.20
2019-05-06T01:52:30.950Z,14.80
2019-05-06T01:53:06.420Z,16.43
2019-05-06T01:53:41.858Z,18.13
2019-05-06T01:54:17.946Z,17.40
2019-05-06T01:54:54.307Z,18.63
2019-05-06T01:55:30.197Z,16.93
2019-05-06T01:56:05.630Z,15.27
2019-05-06T01:56:41.064Z,17.00
2019-05-06T01:57:16.508Z,13.57
2019-05-06T01:57:54.557Z,15.73
2019-05-06T01:58:30.473Z,14.70
2019-05-06T01:59:05.934Z,17.40
2019-05-06T01:59:41.383Z,14.43
2019-05-06T02:00:17.335Z,11.33
2019-05-06T02:00:54.468Z,16.73
2019-05-06T02:01:30.444Z,13.33
2019-05-06T02:02:06.466Z,15.60
2019-05-06T02:02:43.937Z,17.43
2019-05-06T02:03:20.005Z,17.63
2019-05-06T02:03:55.650Z,12.03
2019-05-06T02:04:33.577Z,16.67
2019-05-06T02:05:09.520Z,13.70
2019-05-06T02:05:45.006Z,13.43
2019-05-06T02:06:20.439Z,11.67
2019-05-06T02:06:56.212Z,16.43
2019-05-06T02:07:31.730Z,14.00
2019-05-06T02:08:07.197Z,12.53
2019-05-06T02:08:44.820Z,12.77
2019-05-06T02:09:20.120Z,16.80
2019-05-06T02:09:55.704Z,16.60
2019-05-06T02:10:31.187Z,14.53
2019-05-06T02:11:06.968Z,16.50
2019-05-06T02:11:44.199Z,10.53
2019-05-06T02:12:20.151Z,10.20
2019-05-06T02:12:56.261Z,12.80
2019-05-06T02:13:32.180Z,17.50
2019-05-06T02:14:07.985Z,12.60
2019-05-06T02:14:43.768Z,13.73
2019-05-06T02:15:19.776Z,13.33
2019-05-06T02:15:55.238Z,15.10
2019-05-06T02:16:31.091Z,14.73
2019-05-06T02:17:06.872Z,13.67
2019-05-06T02:17:44.091Z,15.50
2019-05-06T02:18:20.708Z,10.70
2019-05-06T02:18:56.203Z,12.93
2019-05-06T02:19:34.553Z,9.73
2019-05-06T02:20:10.094Z,13.63
2019-05-06T02:20:46.226Z,12.43
2019-05-06T02:21:40.638Z,15.90
2019-05-06T02:22:41.194Z,13.57
2019-05-06T02:23:19.679Z,14.00
2019-05-06T02:23:59.123Z,15.20
2019-05-06T02:24:56.329Z,15.67
2019-05-06T02:25:37.843Z,17.03
2019-05-06T02:26:14.244Z,19.40
2019-05-06T02:26:49.830Z,16.50
2019-05-06T02:27:25.347Z,15.30
2019-05-06T02:28:01.232Z,14.67
2019-05-06T02:28:39.034Z,17.00
2019-05-06T02:29:16.847Z,14.60
2019-05-06T02:29:57.761Z,20.73
2019-05-06T02:30:49.448Z,19.37
2019-05-06T02:31:49.280Z,16.80
2019-05-06T02:32:51.724Z,17.00
2019-05-06T02:33:35.811Z,15.30
2019-05-06T02:34:15.479Z,13.77
2019-05-06T02:34:58.249Z,12.60
2019-05-06T02:35:50.312Z,12.13
2019-05-06T02:36:34.240Z,17.77
2019-05-06T02:37:14.731Z,15.57
2019-05-06T02:37:49.300Z,13.50
2019-05-06T02:38:35.617Z,16.43
2019-05-06T02:39:05.425Z,17.87
2019-05-06T02:39:43.692Z,14.10
2019-05-06T02:40:25.296Z,16.80
2019-05-06T02:41:03.528Z,17.37
2019-05-06T02:41:39.217Z,15.87
2019-05-06T02:42:14.675Z,18.10
2019-05-06T02:42:50.106Z,13.47
2019-05-06T02:43:25.565Z,18.63
2019-05-06T02:44:03.632Z,15.73
2019-05-06T02:44:38.842Z,19.13
2019-05-06T02:45:14.473Z,17.73
2019-05-06T02:45:53.076Z,15.73
2019-05-06T02:46:27.587Z,14.73
2019-05-06T02:47:14.448Z,18.80
2019-05-06T02:47:56.166Z,12.70
2019-05-06T02:48:43.013Z,15.27
2019-05-06T02:49:25.432Z,19.43
2019-05-06T02:50:04.910Z,15.77
2019-05-06T02:50:58.251Z,14.17
2019-05-06T02:51:33.804Z,13.70
2019-05-06T02:52:09.249Z,14.50
2019-05-06T02:52:44.772Z,14.47
2019-05-06T02:53:23.592Z,13.93
2019-05-06T02:53:59.313Z,12.23
2019-05-06T02:54:34.898Z,10.63
2019-05-06T02:55:12.774Z,12.37
2019-05-06T02:55:47.510Z,14.67
2019-05-06T02:56:24.116Z,10.70
2019-05-06T02:56:59.688Z,12.80
2019-05-06T02:57:35.353Z,13.00
2019-05-06T02:58:10.819Z,15.23
2019-05-06T02:58:46.223Z,11.27
2019-05-06T02:59:24.018Z,20.00
2019-05-06T02:59:58.930Z,15.00
2019-05-06T03:00:34.790Z,13.90
2019-05-06T03:01:13.396Z,13.07
2019-05-06T03:01:48.042Z,12.00
2019-05-06T03:02:38.034Z,14.53
2019-05-06T03:03:02.876Z,16.33
2019-05-06T03:03:37.899Z,14.27
2019-05-06T03:04:13.376Z,13.07
2019-05-06T03:04:52.596Z,14.67
2019-05-06T03:05:26.717Z,16.20
2019-05-06T03:06:03.997Z,15.00
2019-05-06T03:06:39.401Z,10.17
2019-05-06T03:07:14.878Z,14.70
2019-05-06T03:07:57.043Z,12.43
2019-05-06T03:08:28.892Z,11.80
2019-05-06T03:09:06.462Z,13.23
2019-05-06T03:09:44.576Z,14.60
2019-05-06T03:10:19.502Z,9.97
2019-05-06T03:10:55.085Z,14.83
2019-05-06T03:11:33.207Z,13.70
2019-05-06T03:12:08.462Z,16.23
2019-05-06T03:12:44.109Z,14.37
2019-05-06T03:13:19.696Z,9.70
2019-05-06T03:13:55.307Z,14.33
2019-05-06T03:14:34.261Z,14.70
2019-05-06T03:15:08.708Z,18.37
2019-05-06T03:15:44.184Z,17.47
2019-05-06T03:16:23.539Z,12.83
2019-05-06T03:16:57.757Z,15.47
2019-05-06T03:17:33.631Z,11.90
2019-05-06T03:18:09.116Z,12.93
2019-05-06T03:18:44.573Z,11.63
2019-05-06T03:19:20.010Z,12.03
2019-05-06T03:19:56.885Z,13.73
2019-05-06T03:20:57.491Z,15.70
2019-05-06T03:21:45.205Z,12.33
2019-05-06T03:22:34.554Z,15.03
2019-05-06T03:23:08.659Z,11.80
2019-05-06T03:23:46.928Z,11.13
2019-05-06T03:24:43.627Z,11.40
2019-05-06T03:25:27.051Z,14.47
2019-05-06T03:26:05.765Z,15.87
2019-05-06T03:26:39.814Z,15.30
2019-05-06T03:27:15.288Z,14.03
2019-05-06T03:27:53.229Z,11.00
2019-05-06T03:28:27.966Z,13.83
2019-05-06T03:29:03.511Z,12.00
2019-05-06T03:29:38.948Z,9.60
2019-05-06T03:30:16.557Z,11.13
2019-05-06T03:30:56.423Z,12.13
2019-05-06T03:31:29.608Z,12.60
2019-05-06T03:32:06.976Z,13.27
2019-05-06T03:33:20.959Z,12.50
2019-05-06T03:33:40.189Z,17.43
2019-05-06T03:34:21.104Z,13.77
2019-05-06T03:34:58.776Z,10.67
2019-05-06T03:35:27.341Z,14.10
2019-05-06T03:36:00.562Z,10.30
2019-05-06T03:36:32.949Z,15.50
2019-05-06T03:37:07.190Z,17.37
2019-05-06T03:37:44.019Z,13.43
2019-05-06T03:38:22.716Z,16.57
2019-05-06T03:38:57.283Z,15.30
2019-05-06T03:39:33.890Z,10.07
2019-05-06T03:40:10.271Z,16.83
2019-05-06T03:40:46.114Z,13.70
2019-05-06T03:41:23.365Z,18.67
2019-05-06T03:41:59.205Z,19.60
2019-05-06T03:42:34.721Z,15.33
2019-05-06T03:43:13.664Z,13.53
2019-05-06T03:43:47.406Z,14.60
2019-05-06T03:44:23.954Z,14.07
2019-05-06T03:45:04.381Z,13.47
2019-05-06T03:45:59.002Z,14.10
2019-05-06T03:46:53.982Z,14.60
2019-05-06T03:47:43.310Z,18.80
2019-05-06T03:48:24.526Z,12.63
2019-05-06T03:49:03.668Z,11.97
2019-05-06T03:49:43.631Z,14.20
2019-05-06T03:50:19.322Z,15.53
2019-05-06T03:50:56.011Z,13.60
2019-05-06T03:51:34.350Z,13.47
2019-05-06T03:52:09.487Z,14.97
2019-05-06T03:52:45.367Z,14.33
2019-05-06T03:53:23.238Z,13.40
2019-05-06T03:54:03.269Z,12.27
2019-05-06T03:54:39.290Z,11.67
2019-05-06T03:55:14.815Z,15.20
2019-05-06T03:55:53.941Z,18.57
2019-05-06T03:56:29.539Z,13.43
2019-05-06T03:57:06.035Z,13.10
2019-05-06T03:57:42.969Z,14.27
2019-05-06T03:58:23.610Z,14.43
2019-05-06T03:58:59.384Z,14.83
2019-05-06T03:59:36.827Z,16.03
2019-05-06T04:00:15.972Z,13.17
2019-05-06T04:00:53.104Z,17.60
2019-05-06T04:01:28.974Z,14.37
2019-05-06T04:02:05.430Z,16.20
2019-05-06T04:02:43.490Z,18.17
2019-05-06T04:03:18.199Z,15.90
2019-05-06T04:03:57.152Z,15.90
2019-05-06T04:04:33.199Z,14.13
2019-05-06T04:05:08.511Z,13.97
2019-05-06T04:05:44.870Z,13.70
2019-05-06T04:06:24.023Z,16.27
2019-05-06T04:06:58.985Z,15.90
2019-05-06T04:07:34.799Z,19.10
2019-05-06T04:08:12.749Z,15.20
2019-05-06T04:08:52.601Z,17.07
2019-05-06T04:09:26.849Z,16.33
2019-05-06T04:10:03.431Z,13.80
2019-05-06T04:10:39.402Z,12.03
2019-05-06T04:11:18.352Z,15.50
2019-05-06T04:11:54.440Z,17.17
2019-05-06T04:12:33.282Z,16.00
2019-05-06T04:13:13.493Z,12.07
2019-05-06T04:13:50.036Z,14.23
2019-05-06T04:14:27.307Z,13.87
2019-05-06T04:15:04.388Z,13.90
2019-05-06T04:16:08.302Z,13.53
2019-05-06T04:16:53.236Z,14.73
2019-05-06T04:17:57.185Z,15.93
2019-05-06T04:18:33.622Z,11.57
2019-05-06T04:19:24.883Z,15.80
2019-05-06T04:20:07.735Z,18.30
2019-05-06T04:20:53.264Z,17.40
2019-05-06T04:21:35.440Z,11.40
2019-05-06T04:22:36.302Z,12.93
2019-05-06T04:23:25.659Z,14.53
2019-05-06T04:24:22.768Z,17.17
2019-05-06T04:25:14.057Z,14.87
2019-05-06T04:25:58.181Z,16.17
2019-05-06T04:26:46.359Z,16.17
2019-05-06T04:27:36.999Z,16.23
2019-05-06T04:28:18.461Z,14.33
2019-05-06T04:28:55.645Z,10.27
2019-05-06T04:29:33.092Z,16.50
2019-05-06T04:30:09.051Z,15.00
2019-05-06T04:30:44.631Z,17.63
2019-05-06T04:31:22.707Z,16.57
2019-05-06T04:31:57.241Z,17.30
2019-05-06T04:32:34.094Z,14.53
2019-05-06T04:33:14.112Z,18.83
2019-05-06T04:34:05.361Z,16.80
2019-05-06T04:34:24.953Z,12.63
2019-05-06T04:35:04.084Z,16.23
2019-05-06T04:35:38.405Z,15.00
2019-05-06T04:36:14.166Z,17.57
2019-05-06T04:36:49.600Z,16.40
2019-05-06T04:37:25.093Z,19.97
2019-05-06T04:38:03.137Z,16.53
2019-05-06T04:38:38.770Z,19.20
2019-05-06T04:39:14.771Z,22.57
2019-05-06T04:39:53.179Z,19.13
2019-05-06T04:40:28.400Z,14.03
2019-05-06T04:41:04.423Z,18.13
2019-05-06T04:41:43.060Z,20.23
2019-05-06T04:42:17.560Z,16.67
2019-05-06T04:42:53.330Z,16.97
2019-05-06T04:43:29.170Z,26.20
2019-05-06T04:44:04.805Z,18.30
2019-05-06T04:44:40.312Z,18.30
2019-05-06T04:45:17.264Z,21.07
2019-05-06T04:45:54.189Z,17.33
2019-05-06T04:46:34.370Z,18.37
2019-05-06T04:47:08.259Z,26.93
2019-05-06T04:47:43.786Z,23.90
2019-05-06T04:48:19.274Z,23.27
2019-05-06T04:48:57.261Z,19.03
2019-05-06T04:49:33.296Z,23.53
2019-05-06T04:50:09.453Z,24.10
2019-05-06T04:50:44.921Z,22.37
2019-05-06T04:51:24.616Z,22.33
2019-05-06T04:51:59.079Z,22.87
2019-05-06T04:52:34.547Z,27.17
2019-05-06T04:53:10.450Z,24.93
2019-05-06T04:53:47.132Z,23.10
2019-05-06T04:54:26.225Z,26.53
2019-05-06T04:55:03.133Z,22.40
2019-05-06T04:55:37.732Z,26.23
2019-05-06T04:56:14.375Z,21.27
2019-05-06T04:56:53.452Z,28.60
2019-05-06T04:57:28.051Z,24.37
2019-05-06T04:58:05.729Z,30.20
2019-05-06T04:58:42.897Z,29.37
2019-05-06T04:59:19.353Z,23.93
2019-05-06T04:59:55.273Z,30.70
2019-05-06T05:00:33.135Z,27.67
2019-05-06T05:01:11.900Z,25.40
2019-05-06T05:01:45.986Z,23.70
2019-05-06T05:02:23.043Z,22.93
2019-05-06T05:02:58.967Z,24.93
2019-05-06T05:03:35.430Z,23.13
2019-05-06T05:04:24.556Z,25.33
2019-05-06T05:04:48.565Z,22.80
2019-05-06T05:05:24.228Z,20.37
2019-05-06T05:06:02.980Z,22.60
2019-05-06T05:06:37.462Z,19.27
2019-05-06T05:07:12.994Z,23.30
2019-05-06T05:07:49.032Z,21.23
2019-05-06T05:08:36.882Z,22.37
2019-05-06T05:09:17.144Z,24.37
2019-05-06T05:09:53.834Z,23.40
2019-05-06T05:10:35.903Z,24.13
2019-05-06T05:11:35.279Z,24.83
2019-05-06T05:12:16.301Z,26.10
2019-05-06T05:13:12.644Z,26.83
2019-05-06T05:13:56.353Z,20.50
2019-05-06T05:14:36.940Z,19.20
2019-05-06T05:15:32.547Z,23.13
2019-05-06T05:16:14.838Z,22.10
2019-05-06T05:16:58.571Z,23.83
2019-05-06T05:17:42.366Z,19.37
2019-05-06T05:18:25.099Z,22.40
2019-05-06T05:19:06.518Z,16.30
2019-05-06T05:19:42.925Z,18.07
2019-05-06T05:20:18.468Z,20.17
2019-05-06T05:20:55.330Z,17.53
2019-05-06T05:21:32.256Z,16.23
2019-05-06T05:22:08.155Z,18.03
2019-05-06T05:22:44.835Z,20.53
2019-05-06T05:23:22.818Z,17.70
2019-05-06T05:23:58.507Z,17.27
2019-05-06T05:24:34.359Z,22.43
2019-05-06T05:25:12.064Z,16.13
2019-05-06T05:25:47.515Z,19.80
2019-05-06T05:26:23.437Z,17.30
2019-05-06T05:26:59.066Z,19.43
2019-05-06T05:27:34.655Z,18.17
2019-05-06T05:28:12.966Z,19.13
2019-05-06T05:28:48.324Z,23.07
2019-05-06T05:29:23.891Z,15.70
2019-05-06T05:29:59.440Z,19.23
2019-05-06T05:30:35.515Z,17.40
2019-05-06T05:31:12.341Z,17.47
2019-05-06T05:31:47.859Z,17.00
2019-05-06T05:32:26.545Z,20.60
2019-05-06T05:33:02.601Z,16.43
2019-05-06T05:33:38.190Z,20.30
2019-05-06T05:34:14.465Z,17.73
2019-05-06T05:34:52.102Z,20.00
2019-05-06T05:35:27.910Z,17.87
2019-05-06T05:36:03.403Z,17.53
2019-05-06T05:36:39.634Z,20.23
2019-05-06T05:37:15.892Z,20.67
2019-05-06T05:37:52.918Z,20.60
2019-05-06T05:38:29.124Z,20.70
2019-05-06T05:39:07.178Z,18.97
2019-05-06T05:39:42.893Z,24.43
2019-05-06T05:40:18.769Z,21.90
2019-05-06T05:40:54.555Z,20.50
2019-05-06T05:41:30.045Z,19.27
2019-05-06T05:42:17.106Z,19.50
2019-05-06T05:43:02.883Z,18.03
2019-05-06T05:43:48.528Z,18.93
2019-05-06T05:44:29.931Z,15.83
2019-05-06T05:45:05.793Z,17.87
2019-05-06T05:45:42.498Z,23.70
2019-05-06T05:46:18.269Z,15.00
2019-05-06T05:46:53.739Z,18.00
2019-05-06T05:47:29.377Z,19.23
2019-05-06T05:48:12.379Z,18.90
2019-05-06T05:49:11.927Z,16.57
2019-05-06T05:50:22.839Z,17.07
2019-05-06T05:50:58.855Z,17.00
2019-05-06T05:51:34.346Z,18.63
2019-05-06T05:52:12.526Z,20.23
2019-05-06T05:52:47.856Z,20.73
2019-05-06T05:53:23.639Z,19.07
2019-05-06T05:54:02.059Z,17.83
2019-05-06T05:54:37.117Z,20.00
2019-05-06T05:55:13.360Z,17.30
2019-05-06T05:55:48.920Z,22.80
2019-05-06T05:56:24.595Z,15.53
2019-05-06T05:57:02.386Z,17.43
2019-05-06T05:57:38.392Z,18.37
2019-05-06T05:58:13.906Z,17.50
2019-05-06T05:58:49.683Z,20.30
2019-05-06T05:59:25.492Z,19.10
2019-05-06T06:00:03.703Z,17.97
2019-05-06T06:00:39.695Z,18.90
2019-05-06T06:01:15.151Z,21.10
2019-05-06T06:01:52.899Z,17.07
2019-05-06T06:02:30.640Z,18.80
2019-05-06T06:03:07.450Z,18.53
2019-05-06T06:03:42.978Z,19.47
2019-05-06T06:04:18.963Z,19.87
2019-05-06T06:04:57.673Z,16.97
2019-05-06T06:05:32.982Z,18.70
2019-05-06T06:06:08.936Z,17.30
2019-05-06T06:06:44.474Z,20.47
2019-05-06T06:07:20.257Z,22.40
2019-05-06T06:07:55.718Z,19.50
2019-05-06T06:08:32.258Z,18.43
2019-05-06T06:09:08.273Z,20.23
2019-05-06T06:09:57.884Z,21.20
2019-05-06T06:11:04.555Z,21.13
2019-05-06T06:11:46.518Z,19.53
2019-05-06T06:12:23.052Z,15.97
2019-05-06T06:12:58.923Z,18.77
2019-05-06T06:13:34.458Z,17.83
2019-05-06T06:14:29.376Z,21.10
2019-05-06T06:15:24.251Z,17.70
2019-05-06T06:16:27.946Z,18.33
2019-05-06T06:17:18.442Z,16.70
2019-05-06T06:18:16.255Z,19.03
2019-05-06T06:19:03.201Z,16.97
2019-05-06T06:19:47.935Z,15.73
2019-05-06T06:20:42.408Z,18.33
2019-05-06T06:21:32.241Z,20.13
2019-05-06T06:22:14.791Z,17.47
2019-05-06T06:22:52.183Z,15.53
2019-05-06T06:23:32.366Z,14.50
2019-05-06T06:24:16.135Z,15.70
2019-05-06T06:24:52.632Z,19.80
2019-05-06T06:25:28.229Z,17.53
2019-05-06T06:26:04.180Z,23.57
2019-05-06T06:26:39.766Z,19.47
2019-05-06T06:27:15.233Z,16.87
2019-05-06T06:27:52.091Z,18.77
2019-05-06T06:28:28.181Z,14.67
2019-05-06T06:29:03.734Z,17.93
2019-05-06T06:29:41.706Z,13.67
2019-05-06T06:30:16.754Z,18.97
2019-05-06T06:31:04.693Z,21.07
2019-05-06T06:32:03.146Z,15.47
2019-05-06T06:32:38.701Z,16.33
2019-05-06T06:33:14.194Z,22.73
2019-05-06T06:33:52.964Z,17.60
2019-05-06T06:34:33.775Z,18.17
2019-05-06T06:35:28.359Z,19.23
2019-05-06T06:36:12.301Z,20.33
2019-05-06T06:37:10.022Z,15.37
2019-05-06T06:37:59.682Z,14.43
2019-05-06T06:38:47.953Z,16.40
2019-05-06T06:39:26.885Z,15.23
2019-05-06T06:40:02.785Z,16.03
2019-05-06T06:40:38.482Z,15.67
2019-05-06T06:41:14.333Z,16.87
2019-05-06T06:41:51.934Z,22.70
2019-05-06T06:42:27.521Z,20.03
2019-05-06T06:43:06.235Z,20.50
2019-05-06T06:43:42.146Z,17.53
2019-05-06T06:44:22.126Z,15.37
2019-05-06T06:44:57.662Z,18.07
2019-05-06T06:45:33.853Z,17.20
2019-05-06T06:46:09.590Z,22.80
2019-05-06T06:46:45.436Z,16.07
2019-05-06T06:47:22.453Z,18.13
2019-05-06T06:47:58.326Z,18.63
2019-05-06T06:48:34.286Z,18.07
2019-05-06T06:49:12.724Z,16.63
2019-05-06T06:49:48.423Z,18.47
2019-05-06T06:50:23.901Z,18.77
2019-05-06T06:50:59.773Z,17.13
2019-05-06T06:51:35.542Z,17.13
2019-05-06T06:52:14.609Z,17.70
2019-05-06T06:52:48.706Z,19.27
2019-05-06T06:53:24.151Z,14.80
2019-05-06T06:54:01.973Z,16.03
2019-05-06T06:54:37.870Z,15.93
2019-05-06T06:55:13.582Z,14.10
2019-05-06T06:55:49.043Z,13.20
2019-05-06T06:56:33.911Z,20.00
2019-05-06T06:57:31.289Z,13.87
2019-05-06T06:58:24.455Z,16.70
2019-05-06T06:59:15.017Z,19.50
2019-05-06T07:00:03.880Z,16.20
2019-05-06T07:00:56.148Z,16.73
2019-05-06T07:01:37.787Z,16.93
2019-05-06T07:02:23.548Z,17.10
2019-05-06T07:03:03.126Z,19.67
2019-05-06T07:04:10.465Z,15.37
2019-05-06T07:04:47.816Z,15.37
2019-05-06T07:05:54.701Z,21.80
2019-05-06T07:06:42.915Z,13.97
2019-05-06T07:07:18.734Z,19.13
2019-05-06T07:07:54.503Z,14.53
2019-05-06T07:08:34.863Z,18.87
2019-05-06T07:09:08.073Z,17.67
2019-05-06T07:09:44.001Z,17.03
2019-05-06T07:10:37.043Z,16.37
2019-05-06T07:11:13.123Z,18.17
2019-05-06T07:11:49.007Z,18.30
2019-05-06T07:12:26.553Z,17.17
2019-05-06T07:13:03.033Z,16.83
2019-05-06T07:13:42.757Z,15.97
2019-05-06T07:14:18.753Z,16.63
2019-05-06T07:15:02.236Z,23.03
2019-05-06T07:15:38.384Z,19.73
2019-05-06T07:16:14.362Z,16.03
2019-05-06T07:16:50.151Z,15.83
2019-05-06T07:17:25.618Z,17.57
2019-05-06T07:18:02.279Z,18.17
2019-05-06T07:18:38.346Z,21.47
2019-05-06T07:19:15.813Z,22.90
2019-05-06T07:19:55.560Z,17.97
2019-05-06T07:20:34.830Z,17.97
2019-05-06T07:21:22.533Z,13.93
2019-05-06T07:21:58.813Z,14.53
2019-05-06T07:22:37.431Z,14.77
2019-05-06T07:23:25.274Z,17.07
2019-05-06T07:24:02.177Z,19.60
2019-05-06T07:24:38.056Z,16.87
2019-05-06T07:25:13.663Z,15.07
2019-05-06T07:25:49.475Z,15.97
2019-05-06T07:26:28.171Z,16.50
2019-05-06T07:27:12.616Z,19.27
2019-05-06T07:27:48.526Z,17.50
2019-05-06T07:28:24.516Z,14.33
2019-05-06T07:29:05.967Z,16.87
2019-05-06T07:29:37.170Z,16.67
2019-05-06T07:30:13.010Z,16.23
2019-05-06T07:30:48.464Z,16.13
2019-05-06T07:31:26.658Z,16.67
2019-05-06T07:32:02.705Z,19.53
2019-05-06T07:32:38.548Z,18.50
2019-05-06T07:33:14.044Z,17.07
2019-05-06T07:33:49.468Z,13.13
2019-05-06T07:34:25.297Z,14.07
2019-05-06T07:35:02.398Z,15.87
2019-05-06T07:35:41.007Z,15.40
2019-05-06T07:36:16.032Z,16.77
2019-05-06T07:36:52.437Z,15.50
2019-05-06T07:37:28.422Z,14.57
2019-05-06T07:38:03.869Z,20.10
2019-05-06T07:38:42.841Z,13.53
2019-05-06T07:39:18.409Z,13.30
2019-05-06T07:39:54.175Z,15.63
2019-05-06T07:40:29.665Z,16.40
2019-05-06T07:41:17.180Z,17.50
2019-05-06T07:41:55.717Z,15.07
2019-05-06T07:42:37.462Z,17.80
2019-05-06T07:43:41.924Z,13.23
2019-05-06T07:44:39.095Z,13.27
2019-05-06T07:45:39.578Z,16.63
2019-05-06T07:46:25.715Z,12.30
2019-05-06T07:47:15.753Z,13.97
2019-05-06T07:47:57.092Z,15.20
2019-05-06T07:48:32.988Z,13.47
2019-05-06T07:49:08.885Z,13.67
2019-05-06T07:49:44.416Z,17.37
2019-05-06T07:50:19.881Z,18.47
2019-05-06T07:50:55.728Z,17.23
2019-05-06T07:51:32.453Z,12.60
2019-05-06T07:52:08.530Z,16.57
2019-05-06T07:53:03.386Z,17.03
2019-05-06T07:53:39.484Z,17.80
2019-05-06T07:54:15.779Z,15.30
2019-05-06T07:54:53.155Z,15.97
2019-05-06T07:55:28.369Z,16.60
2019-05-06T07:56:03.956Z,14.83
2019-05-06T07:56:39.572Z,13.13
2019-05-06T07:57:15.633Z,15.43
2019-05-06T07:57:52.516Z,16.60
2019-05-06T07:58:28.136Z,13.27
2019-05-06T07:59:09.967Z,12.80
2019-05-06T07:59:45.541Z,12.47
2019-05-06T08:00:22.992Z,15.13
2019-05-06T08:00:58.716Z,14.10
2019-05-06T08:01:34.333Z,9.93
2019-05-06T08:02:10.079Z,14.43
2019-05-06T08:02:45.636Z,16.33
2019-05-06T08:03:22.251Z,16.20
2019-05-06T08:03:57.817Z,13.87
2019-05-06T08:04:33.778Z,10.73
2019-05-06T08:05:09.357Z,14.00
2019-05-06T08:05:54.662Z,13.20
2019-05-06T08:06:22.839Z,14.30
2019-05-06T08:06:58.402Z,13.60
2019-05-06T08:07:33.933Z,14.87
2019-05-06T08:08:09.859Z,10.03
2019-05-06T08:08:45.652Z,15.23
2019-05-06T08:09:22.172Z,13.10
2019-05-06T08:09:58.009Z,13.20
2019-05-06T08:10:33.637Z,12.37
2019-05-06T08:11:09.172Z,11.57
2019-05-06T08:11:44.713Z,12.23
2019-05-06T08:12:22.253Z,13.07
2019-05-06T08:12:57.511Z,15.43
2019-05-06T08:13:33.433Z,14.53
2019-05-06T08:14:08.914Z,10.93
2019-05-06T08:14:44.805Z,14.23
2019-05-06T08:15:22.549Z,13.03
2019-05-06T08:15:58.190Z,11.67
2019-05-06T08:16:36.118Z,16.97
2019-05-06T08:17:24.151Z,12.20
2019-05-06T08:17:59.626Z,12.10
2019-05-06T08:18:35.303Z,13.87